Time;durP1;ratioP1;P1;durP2;ratioP2;P2;SDS_P1;SDS_P2;PMS_P1;PMS_P2;Temp;Humidity;BMP_temperature;BMP_pressure;BME280_temperature;BME280_humidity;BME280_pressure;Samples;Min_cycle;Max_cycle;Signal;HPM_P1;HPM_P2
2023/05/14 00:02:09;;;;;;;2.33;2.20;;;;;;;14.61;45.32;101744.53;4958103;28;98129;-82
2023/05/14 00:04:34;;;;;;;6.03;2.30;;;;;;;14.56;45.38;101745.28;4958537;28;97249;-82
2023/05/14 00:07:00;;;;;;;2.50;2.30;;;;;;;14.60;45.26;101751.34;4957925;28;96850;-81
2023/05/14 00:09:25;;;;;;;2.20;2.10;;;;;;;14.58;45.28;101753.84;4954543;28;98248;-82
2023/05/14 00:11:51;;;;;;;3.63;2.17;;;;;;;14.58;45.34;101753.06;4953209;28;99202;-82
2023/05/14 00:14:16;;;;;;;2.40;2.20;;;;;;;14.52;45.56;101761.34;4957289;28;97180;-82
2023/05/14 00:16:42;;;;;;;2.77;1.90;;;;;;;14.51;45.59;101754.28;4957294;28;97184;-81
2023/05/14 00:19:07;;;;;;;2.73;2.53;;;;;;;14.43;45.76;101744.16;4955988;28;100485;-83
2023/05/14 00:21:32;;;;;;;2.23;2.13;;;;;;;14.37;45.90;101755.19;4963797;28;100669;-82
2023/05/14 00:23:58;;;;;;;2.00;1.87;;;;;;;14.30;45.84;101755.66;4953066;28;96912;-81
2023/05/14 00:26:23;;;;;;;1.90;1.80;;;;;;;14.27;45.98;101742.75;4954937;28;97030;-81
2023/05/14 00:28:49;;;;;;;2.17;2.07;;;;;;;14.20;46.10;101743.94;4960062;28;115380;-81
2023/05/14 00:31:14;;;;;;;3.20;2.20;;;;;;;14.17;45.99;101747.72;4955029;28;97370;-82
2023/05/14 00:33:39;;;;;;;2.40;2.30;;;;;;;14.12;46.14;101739.34;4961015;28;97488;-81
2023/05/14 00:36:05;;;;;;;2.50;2.10;;;;;;;14.08;46.19;101749.88;4956384;28;97084;-82
2023/05/14 00:38:30;;;;;;;2.30;2.10;;;;;;;14.04;46.19;101736.25;4970898;28;100199;-81
2023/05/14 00:40:56;;;;;;;2.20;2.10;;;;;;;14.02;46.38;101747.06;4972600;28;100406;-81
2023/05/14 00:43:21;;;;;;;2.30;2.20;;;;;;;14.01;46.42;101730.94;4955801;28;96952;-81
2023/05/14 00:45:53;;;;;;;2.37;1.90;;;;;;;13.99;46.68;101728.69;4955763;28;97731;-81
2023/05/14 00:48:20;;;;;;;2.43;2.33;;;;;;;13.96;46.45;101748.25;4955841;28;101137;-81
2023/05/14 00:50:45;;;;;;;2.23;2.13;;;;;;;13.90;46.51;101741.91;4952156;28;98518;-81
2023/05/14 00:53:11;;;;;;;2.40;2.23;;;;;;;13.85;46.45;101731.53;4952099;28;97152;-82
2023/05/14 00:55:38;;;;;;;2.60;2.50;;;;;;;13.82;46.73;101727.78;4962232;28;97686;-81
2023/05/14 00:58:08;;;;;;;6.57;2.80;;;;;;;13.81;46.70;101731.00;4954397;28;98704;-81
2023/05/14 01:00:34;;;;;;;2.17;2.07;;;;;;;13.77;46.73;101724.94;4955722;28;96798;-81
2023/05/14 01:03:00;;;;;;;4.40;2.20;;;;;;;13.74;46.53;101732.19;4955123;28;96774;-81
2023/05/14 01:05:32;;;;;;;2.23;2.13;;;;;;;13.72;47.04;101725.63;4954540;28;97149;-81
2023/05/14 01:08:06;;;;;;;2.77;2.57;;;;;;;13.69;46.68;101734.91;4958490;28;99164;-81
2023/05/14 01:10:41;;;;;;;3.17;2.40;;;;;;;13.64;47.26;101741.91;4956222;28;98125;-82
2023/05/14 01:13:21;;;;;;;2.23;2.13;;;;;;;13.63;47.50;101731.34;4954974;28;97460;-81
2023/05/14 01:15:48;;;;;;;2.90;2.60;;;;;;;13.59;46.81;101737.06;4955653;28;97027;-82
2023/05/14 01:18:17;;;;;;;2.00;1.90;;;;;;;13.53;47.27;101727.97;4951778;28;99286;-81
2023/05/14 01:20:44;;;;;;;2.13;2.00;;;;;;;13.50;47.22;101751.03;4957141;28;97448;-81
2023/05/14 01:23:09;;;;;;;5.37;2.70;;;;;;;13.44;47.20;101726.13;4962547;28;96974;-82
2023/05/14 01:25:36;;;;;;;3.40;2.40;;;;;;;13.46;47.26;101729.16;4955047;28;97103;-82
2023/05/14 01:28:11;;;;;;;3.70;2.57;;;;;;;13.47;48.09;101730.69;4953857;28;100546;-81
2023/05/14 01:30:48;;;;;;;2.47;2.37;;;;;;;13.43;48.13;101743.94;4953956;28;99482;-81
2023/05/14 01:33:17;;;;;;;3.87;2.33;;;;;;;13.40;47.53;101735.84;4951063;28;97379;-82
2023/05/14 01:35:43;;;;;;;2.50;2.33;;;;;;;13.37;47.64;101728.53;4955157;28;97296;-81
2023/05/14 01:38:11;;;;;;;2.77;2.37;;;;;;;13.35;47.56;101725.50;4961565;28;99550;-81
2023/05/14 01:40:37;;;;;;;2.40;2.30;;;;;;;13.33;47.70;101727.97;4954273;28;98984;-81
2023/05/14 01:43:03;;;;;;;3.17;2.97;;;;;;;13.31;47.93;101728.47;4959563;28;97674;-81
2023/05/14 01:45:29;;;;;;;2.00;1.90;;;;;;;13.26;47.87;101714.56;4950794;28;97233;-81
2023/05/14 01:47:55;;;;;;;2.10;1.90;;;;;;;13.24;47.87;101734.41;4959828;28;100090;-81
2023/05/14 01:50:20;;;;;;;2.43;2.33;;;;;;;13.25;48.04;101743.47;4967376;28;99227;-80
2023/05/14 01:52:47;;;;;;;2.03;1.90;;;;;;;13.20;48.13;101750.44;4955161;28;97268;-81
2023/05/14 01:55:12;;;;;;;2.90;2.70;;;;;;;13.21;48.13;101734.63;4955898;28;97124;-81
2023/05/14 01:57:38;;;;;;;2.57;2.10;;;;;;;13.18;48.29;101739.13;4953399;28;100487;-82
2023/05/14 02:00:04;;;;;;;2.93;2.70;;;;;;;13.13;48.19;101734.28;4952990;28;98951;-83
2023/05/14 02:02:29;;;;;;;2.60;2.40;;;;;;;13.10;48.33;101738.03;4955744;28;96935;-82
2023/05/14 02:04:55;;;;;;;2.63;2.27;;;;;;;13.10;48.45;101740.78;4956236;28;100450;-81
2023/05/14 02:07:20;;;;;;;4.13;2.27;;;;;;;13.12;48.41;101737.53;4953700;28;97197;-80
2023/05/14 02:09:46;;;;;;;2.27;2.17;;;;;;;13.11;48.52;101738.75;4956685;28;97215;-82
2023/05/14 02:12:11;;;;;;;2.70;2.50;;;;;;;13.09;48.54;101719.91;4955089;28;97310;-82
2023/05/14 02:14:36;;;;;;;2.60;2.40;;;;;;;13.11;48.52;101722.19;4954603;28;96829;-82
2023/05/14 02:17:02;;;;;;;2.53;2.43;;;;;;;13.08;48.63;101731.47;4957563;28;100685;-81
2023/05/14 02:19:28;;;;;;;2.67;2.47;;;;;;;13.04;48.73;101736.41;4955083;28;99291;-81
2023/05/14 02:21:53;;;;;;;2.20;2.10;;;;;;;13.02;48.67;101734.09;4957566;28;97322;-81
2023/05/14 02:24:18;;;;;;;2.40;2.20;;;;;;;12.93;48.94;101712.13;4957906;28;105227;-81
2023/05/14 02:26:44;;;;;;;2.70;2.50;;;;;;;12.90;48.85;101718.63;4953160;28;100666;-82
2023/05/14 02:29:09;;;;;;;2.90;2.53;;;;;;;12.88;48.91;101718.38;4955611;28;97512;-81
2023/05/14 02:31:35;;;;;;;2.70;2.50;;;;;;;12.84;48.86;101709.53;4959616;28;97090;-82
2023/05/14 02:34:02;;;;;;;2.40;2.30;;;;;;;12.85;49.06;101724.84;4956042;28;97151;-81
2023/05/14 02:36:27;;;;;;;2.47;2.27;;;;;;;12.85;48.89;101708.28;4952165;28;99248;-81
2023/05/14 02:38:52;;;;;;;2.70;2.30;;;;;;;12.80;49.15;101722.75;4954709;28;100887;-82
2023/05/14 02:41:17;;;;;;;3.07;2.77;;;;;;;12.75;49.31;101704.88;4962160;28;97428;-81
2023/05/14 02:43:43;;;;;;;2.20;2.10;;;;;;;12.70;49.28;101708.34;4968623;28;97874;-82
2023/05/14 02:46:08;;;;;;;2.47;2.30;;;;;;;12.70;49.36;101713.84;4949677;28;99396;-82
2023/05/14 02:48:33;;;;;;;1.97;1.87;;;;;;;12.65;49.39;101703.47;4957354;28;100511;-81
2023/05/14 02:50:59;;;;;;;2.93;2.73;;;;;;;12.68;49.50;101705.28;4970441;28;96965;-82
2023/05/14 02:53:24;;;;;;;2.10;2.00;;;;;;;12.68;49.58;101712.81;4959716;28;97177;-81
2023/05/14 02:55:49;;;;;;;3.03;2.83;;;;;;;12.66;49.49;101718.81;4959477;28;101535;-81
2023/05/14 02:58:15;;;;;;;2.70;2.50;;;;;;;12.65;49.72;101744.13;4954164;28;97769;-81
2023/05/14 03:00:40;;;;;;;2.60;2.40;;;;;;;12.66;49.75;101707.78;4955710;28;96928;-82
2023/05/14 03:03:06;;;;;;;3.00;2.80;;;;;;;12.64;49.75;101712.25;4953112;28;97214;-82
2023/05/14 03:05:31;;;;;;;2.00;1.90;;;;;;;12.60;49.78;101717.97;4954429;28;97817;-82
2023/05/14 03:07:57;;;;;;;2.90;2.30;;;;;;;12.58;49.85;101711.41;4955978;28;99333;-81
2023/05/14 03:10:22;;;;;;;9.97;2.23;;;;;;;12.55;49.95;101732.47;4955075;28;97131;-81
2023/05/14 03:12:48;;;;;;;3.17;2.87;;;;;;;12.50;49.86;101694.47;4956142;28;97965;-81
2023/05/14 03:15:13;;;;;;;2.47;2.27;;;;;;;12.49;50.20;101708.78;4966131;28;100514;-81
2023/05/14 03:17:39;;;;;;;2.30;2.20;;;;;;;12.49;50.03;101701.22;4969681;28;99363;-82
2023/05/14 03:20:04;;;;;;;2.20;2.10;;;;;;;12.50;50.01;101707.53;4953910;28;97189;-82
2023/05/14 03:22:30;;;;;;;2.57;2.37;;;;;;;12.51;50.19;101707.06;4968251;28;97181;-81
2023/05/14 03:24:55;;;;;;;4.60;3.07;;;;;;;12.51;50.13;101717.34;4954267;28;99738;-81
2023/05/14 03:27:21;;;;;;;5.03;3.00;;;;;;;12.47;50.16;101697.47;4957113;28;97772;-82
2023/05/14 03:29:46;;;;;;;2.43;2.33;;;;;;;12.45;50.20;101692.41;4955138;28;96850;-82
2023/05/14 03:32:11;;;;;;;2.57;2.37;;;;;;;12.43;50.19;101694.88;4954237;28;97131;-83
2023/05/14 03:34:37;;;;;;;2.63;2.43;;;;;;;12.42;50.32;101693.38;4957091;28;98192;-82
2023/05/14 03:37:02;;;;;;;2.53;2.40;;;;;;;12.43;50.39;101702.38;4954368;28;99770;-82
2023/05/14 03:39:28;;;;;;;2.27;2.17;;;;;;;12.43;50.23;101741.03;4972151;28;97214;-82
2023/05/14 03:41:55;;;;;;;2.30;2.10;;;;;;;12.42;50.37;101703.66;4952841;28;96826;-83
2023/05/14 03:44:21;;;;;;;3.53;3.23;;;;;;;12.37;50.52;101707.84;4971641;28;100769;-82
2023/05/14 03:46:46;;;;;;;2.13;2.03;;;;;;;12.37;50.67;101712.59;4959803;28;100184;-82
2023/05/14 03:49:12;;;;;;;2.20;2.10;;;;;;;12.37;50.71;101690.50;4958622;28;97195;-82
2023/05/14 03:51:37;;;;;;;2.17;2.07;;;;;;;12.36;50.72;101694.53;4963500;28;97225;-82
2023/05/14 03:54:02;;;;;;;2.67;2.50;;;;;;;12.38;50.58;101692.81;4954173;28;100277;-82
2023/05/14 03:56:28;;;;;;;2.70;2.43;;;;;;;12.34;50.80;101697.00;4962024;28;99356;-82
2023/05/14 03:58:53;;;;;;;2.50;2.40;;;;;;;12.33;50.68;101701.00;4956020;28;98310;-82
2023/05/14 04:01:18;;;;;;;2.57;2.40;;;;;;;12.34;51.00;101697.75;4959963;28;96897;-82
2023/05/14 04:03:44;;;;;;;2.20;2.10;;;;;;;12.35;50.89;101702.03;4955534;28;100242;-82
2023/05/14 04:06:09;;;;;;;2.57;2.40;;;;;;;12.33;51.04;101698.22;4970587;28;99941;-83
2023/05/14 04:08:35;;;;;;;2.23;2.13;;;;;;;12.33;51.08;101721.06;4954716;28;96949;-81
2023/05/14 04:11:00;;;;;;;2.70;2.50;;;;;;;12.35;51.10;101698.50;4961203;28;97636;-83
2023/05/14 04:13:25;;;;;;;2.80;2.60;;;;;;;12.36;51.10;101700.03;4953112;28;99420;-81
2023/05/14 04:15:51;;;;;;;2.90;2.40;;;;;;;12.37;51.09;101696.03;4957796;28;97884;-82
2023/05/14 04:18:16;;;;;;;2.50;2.40;;;;;;;12.42;51.17;101717.44;4956415;28;99088;-82
2023/05/14 04:20:41;;;;;;;2.40;2.20;;;;;;;12.43;51.29;101699.63;4960669;28;97354;-82
2023/05/14 04:23:07;;;;;;;2.27;2.07;;;;;;;12.48;51.44;101701.72;4958619;28;98028;-82
2023/05/14 04:25:32;;;;;;;3.23;2.93;;;;;;;12.45;51.39;101697.19;4958613;28;99363;-82
2023/05/14 04:27:57;;;;;;;2.37;2.17;;;;;;;12.50;51.44;101708.28;4954384;28;98581;-82
2023/05/14 04:30:23;;;;;;;2.37;2.27;;;;;;;12.51;51.34;101690.50;4956989;28;99864;-82
2023/05/14 04:32:48;;;;;;;2.87;2.67;;;;;;;12.58;51.47;101686.56;4952371;28;101696;-83
2023/05/14 04:35:13;;;;;;;2.23;2.13;;;;;;;12.62;51.51;101703.69;4956236;28;100565;-82
2023/05/14 04:37:39;;;;;;;2.70;2.20;;;;;;;12.58;51.55;101705.91;4956046;28;96719;-82
2023/05/14 04:40:06;;;;;;;3.47;2.27;;;;;;;12.66;51.60;101682.94;4959954;28;97564;-82
2023/05/14 04:42:32;;;;;;;2.57;2.47;;;;;;;12.69;51.65;101704.03;4955575;28;97273;-82
2023/05/14 04:44:57;;;;;;;2.10;2.00;;;;;;;12.74;51.74;101697.06;4953152;28;100360;-82
2023/05/14 04:47:23;;;;;;;2.07;1.97;;;;;;;12.76;51.66;101698.13;4954563;28;96907;-81
2023/05/14 04:49:48;;;;;;;2.43;2.20;;;;;;;12.76;51.60;101680.78;4959691;28;97142;-83
2023/05/14 04:52:13;;;;;;;2.23;2.03;;;;;;;12.86;51.83;101704.28;4954382;28;97247;-83
2023/05/14 04:54:38;;;;;;;2.83;2.53;;;;;;;12.85;51.84;101716.56;4953459;28;100312;-81
2023/05/14 04:57:04;;;;;;;2.57;2.37;;;;;;;12.96;51.88;101697.38;4954953;28;96964;-83
2023/05/14 04:59:30;;;;;;;2.53;2.33;;;;;;;12.97;51.96;101698.13;4959166;28;96855;-82
2023/05/14 05:01:55;;;;;;;2.13;2.00;;;;;;;13.01;52.07;101709.72;4962662;28;99750;-82
2023/05/14 05:04:22;;;;;;;2.70;2.50;;;;;;;13.03;52.18;101705.25;4956829;28;97394;-82
2023/05/14 05:06:48;;;;;;;2.80;2.60;;;;;;;13.08;51.85;101699.06;4960698;28;97156;-82
2023/05/14 05:09:14;;;;;;;2.50;2.40;;;;;;;13.16;52.14;101697.41;4955312;28;97179;-82
2023/05/14 05:11:39;;;;;;;2.60;2.40;;;;;;;13.24;52.12;101700.50;4954370;28;97055;-82
2023/05/14 05:14:04;;;;;;;2.30;2.10;;;;;;;13.28;52.16;101693.50;4957812;28;96736;-82
2023/05/14 05:16:30;;;;;;;2.03;1.93;;;;;;;13.36;52.20;101693.84;4957848;28;97227;-82
2023/05/14 05:18:55;;;;;;;3.27;1.97;;;;;;;13.41;52.22;101704.97;4952978;28;97412;-81
2023/05/14 05:21:20;;;;;;;3.00;2.60;;;;;;;13.45;52.25;101688.91;4957681;28;99241;-81
2023/05/14 05:23:46;;;;;;;2.07;1.97;;;;;;;13.52;52.36;101690.50;4955908;28;103307;-81
2023/05/14 05:26:11;;;;;;;2.20;2.10;;;;;;;13.63;52.42;101701.66;4961280;28;97360;-82
2023/05/14 05:28:37;;;;;;;2.00;1.90;;;;;;;13.68;52.31;101700.97;4970284;28;97314;-81
2023/05/14 05:31:02;;;;;;;2.30;2.10;;;;;;;13.72;52.52;101698.75;4953672;28;100074;-82
2023/05/14 05:33:27;;;;;;;2.23;2.13;;;;;;;13.80;52.35;101691.53;4953985;28;97641;-82
2023/05/14 05:35:53;;;;;;;2.57;2.47;;;;;;;13.89;52.57;101704.44;4957028;28;97250;-81
2023/05/14 05:38:18;;;;;;;2.40;2.30;;;;;;;14.00;52.63;101699.00;4956551;28;98152;-81
2023/05/14 05:40:44;;;;;;;2.60;2.50;;;;;;;14.08;52.55;101689.78;4957850;28;97130;-82
2023/05/14 05:43:09;;;;;;;2.30;2.20;;;;;;;14.19;52.56;101709.22;4960191;28;100199;-83
2023/05/14 05:45:34;;;;;;;2.13;2.03;;;;;;;14.29;52.82;101687.66;4953794;28;97245;-81
2023/05/14 05:47:59;;;;;;;3.73;2.60;;;;;;;14.40;52.69;101693.28;4961823;28;97474;-82
2023/05/14 05:50:25;;;;;;;3.53;2.80;;;;;;;14.50;52.89;101705.72;4951878;28;107827;-81
2023/05/14 05:52:51;;;;;;;3.00;2.57;;;;;;;14.60;52.71;101698.72;4959804;28;98931;-82
2023/05/14 05:55:16;;;;;;;2.20;2.00;;;;;;;14.69;52.81;101704.06;4959507;28;97000;-81
2023/05/14 05:57:42;;;;;;;2.20;2.10;;;;;;;14.79;52.83;101701.81;4957938;28;97190;-81
2023/05/14 06:00:14;;;;;;;2.83;2.63;;;;;;;14.93;52.85;101689.81;4955224;28;100853;-82
2023/05/14 06:02:42;;;;;;;2.50;2.30;;;;;;;15.06;52.98;101701.19;4960282;28;99084;-81
2023/05/14 06:05:09;;;;;;;2.40;2.30;;;;;;;15.19;52.89;101711.84;4956261;28;96783;-82
2023/05/14 06:07:35;;;;;;;2.37;2.17;;;;;;;15.29;52.77;101699.28;4968694;28;96918;-81
2023/05/14 06:10:00;;;;;;;2.33;2.20;;;;;;;15.41;52.65;101704.34;4953118;28;99812;-82
2023/05/14 06:12:26;;;;;;;2.37;2.27;;;;;;;15.56;52.69;101707.69;4962038;28;99172;-82
2023/05/14 06:14:54;;;;;;;2.30;2.20;;;;;;;15.68;52.61;101692.56;4955604;28;96994;-82
2023/05/14 06:17:20;;;;;;;2.87;2.67;;;;;;;15.81;52.55;101705.97;4959109;28;97153;-81
2023/05/14 06:19:45;;;;;;;1.70;1.60;;;;;;;15.93;52.45;101701.94;4955674;28;97404;-80
2023/05/14 06:22:10;;;;;;;2.03;1.93;;;;;;;16.05;52.37;101705.47;4968778;28;99401;-81
2023/05/14 06:24:36;;;;;;;2.63;2.33;;;;;;;16.16;52.34;101702.69;4956891;28;97692;-81
2023/05/14 06:27:01;;;;;;;2.20;2.10;;;;;;;16.26;52.13;101707.50;4960610;28;97364;-82
2023/05/14 06:29:26;;;;;;;2.67;2.53;;;;;;;16.35;52.06;101698.91;4953823;28;97359;-80
2023/05/14 06:31:52;;;;;;;2.67;2.47;;;;;;;16.49;51.83;101708.97;4955131;28;99004;-82
2023/05/14 06:34:18;;;;;;;1.90;1.80;;;;;;;16.58;51.87;101696.84;4953742;28;96985;-81
2023/05/14 06:36:43;;;;;;;2.17;2.07;;;;;;;16.72;51.79;101692.28;4957979;28;97352;-81
2023/05/14 06:39:09;;;;;;;2.00;1.90;;;;;;;16.80;51.80;101715.50;4954473;28;100120;-82
2023/05/14 06:41:34;;;;;;;2.10;2.00;;;;;;;16.92;51.71;101695.50;4954196;28;96934;-81
2023/05/14 06:43:59;;;;;;;2.77;2.67;;;;;;;17.02;51.60;101695.97;4953945;28;97077;-82
2023/05/14 06:46:25;;;;;;;2.70;2.53;;;;;;;17.13;51.32;101691.09;4954076;28;97423;-82
2023/05/14 06:48:50;;;;;;;3.80;2.20;;;;;;;17.28;51.40;101703.94;4953422;28;98003;-81
2023/05/14 06:51:15;;;;;;;2.70;2.50;;;;;;;17.37;51.36;101678.59;4958344;28;98937;-82
2023/05/14 06:53:41;;;;;;;3.83;2.57;;;;;;;17.50;51.04;101693.47;4960430;28;97080;-81
2023/05/14 06:56:06;;;;;;;2.40;2.30;;;;;;;17.65;50.79;101681.97;4954462;28;96710;-82
2023/05/14 06:58:32;;;;;;;2.33;2.23;;;;;;;17.77;51.01;101686.97;4955712;28;98209;-82
2023/05/14 07:00:59;;;;;;;2.77;2.60;;;;;;;17.85;50.75;101682.34;4956115;28;97438;-81
2023/05/14 07:03:24;;;;;;;2.50;2.30;;;;;;;17.92;50.60;101676.22;4953281;28;97098;-81
2023/05/14 07:05:50;;;;;;;3.60;2.07;;;;;;;18.01;50.27;101685.50;4962755;28;96929;-81
2023/05/14 07:08:16;;;;;;;2.17;2.07;;;;;;;18.10;50.05;101699.09;4958442;28;101676;-81
2023/05/14 07:10:41;;;;;;;2.40;2.23;;;;;;;18.23;49.87;101685.31;4953939;28;104057;-81
2023/05/14 07:13:07;;;;;;;3.40;2.33;;;;;;;18.34;49.77;101672.03;4972025;28;97664;-81
2023/05/14 07:15:32;;;;;;;2.00;1.90;;;;;;;18.38;49.67;101669.72;4955778;28;97374;-82
2023/05/14 07:17:57;;;;;;;3.40;2.00;;;;;;;18.49;49.78;101680.03;4970980;28;100558;-82
2023/05/14 07:20:23;;;;;;;2.93;2.70;;;;;;;18.54;49.42;101666.00;4963610;28;107989;-82
2023/05/14 07:22:49;;;;;;;2.30;2.10;;;;;;;18.62;49.40;101674.56;4959195;28;97214;-82
2023/05/14 07:25:14;;;;;;;2.40;2.30;;;;;;;18.72;48.95;101669.38;4957822;28;97730;-82
2023/05/14 07:27:40;;;;;;;2.13;2.03;;;;;;;18.79;48.98;101694.63;4958334;28;96770;-80
2023/05/14 07:30:06;;;;;;;4.57;2.03;;;;;;;18.89;48.67;101669.94;4973391;28;99592;-81
2023/05/14 07:32:32;;;;;;;2.33;2.23;;;;;;;18.99;48.74;101660.69;4955376;28;97065;-81
2023/05/14 07:34:57;;;;;;;2.20;2.10;;;;;;;19.07;48.12;101672.72;4955455;28;97370;-82
2023/05/14 07:37:24;;;;;;;2.90;2.70;;;;;;;19.16;48.32;101657.66;4957725;28;98969;-81
2023/05/14 07:39:50;;;;;;;2.20;2.10;;;;;;;19.28;48.45;101651.41;4961021;28;97102;-81
2023/05/14 07:42:15;;;;;;;2.67;2.57;;;;;;;19.44;48.20;101656.00;4957720;28;99579;-82
2023/05/14 07:44:40;;;;;;;2.37;2.27;;;;;;;19.53;47.88;101654.13;4959239;28;99125;-80
2023/05/14 07:47:07;;;;;;;2.70;2.30;;;;;;;19.59;47.53;101661.13;4962378;28;99886;-81
2023/05/14 07:49:33;;;;;;;3.03;2.27;;;;;;;19.71;47.38;101651.28;4957884;28;96973;-81
2023/05/14 07:51:58;;;;;;;2.50;1.63;;;;;;;19.83;47.06;101655.41;4955991;28;97500;-80
2023/05/14 07:54:24;;;;;;;2.37;2.20;;;;;;;19.96;47.07;101641.47;4958302;28;96917;-81
2023/05/14 07:56:49;;;;;;;2.70;2.50;;;;;;;20.03;46.94;101640.06;4962858;28;99412;-81
2023/05/14 07:59:14;;;;;;;2.00;1.90;;;;;;;20.07;47.00;101646.13;4960369;28;100371;-82
2023/05/14 08:01:40;;;;;;;1.93;1.83;;;;;;;20.23;46.84;101642.28;4958500;28;97236;-81
2023/05/14 08:04:06;;;;;;;2.27;2.17;;;;;;;20.28;46.42;101627.47;4955867;28;97783;-81
2023/05/14 08:06:32;;;;;;;2.43;2.23;;;;;;;20.36;46.11;101622.72;4963606;28;99842;-81
2023/05/14 08:08:57;;;;;;;1.93;1.83;;;;;;;20.46;45.88;101625.88;4955140;28;97071;-81
2023/05/14 08:11:23;;;;;;;3.33;1.90;;;;;;;20.52;45.52;101679.63;4958555;28;96862;-81
2023/05/14 08:13:48;;;;;;;3.27;1.90;;;;;;;20.72;45.51;101635.00;4959875;28;97244;-80
2023/05/14 08:16:13;;;;;;;2.37;2.17;;;;;;;20.83;45.14;101639.59;4961081;28;97276;-80
2023/05/14 08:18:39;;;;;;;2.03;1.93;;;;;;;20.96;44.99;101642.38;4958912;28;98798;-83
2023/05/14 08:21:05;;;;;;;4.20;2.00;;;;;;;21.09;44.81;101633.22;4956229;28;97690;-81
2023/05/14 08:23:31;;;;;;;2.43;2.27;;;;;;;21.16;44.67;101655.72;4961181;28;97101;-82
2023/05/14 08:25:58;;;;;;;2.00;1.90;;;;;;;21.35;44.84;101628.28;4957501;28;99230;-82
2023/05/14 08:28:23;;;;;;;2.40;2.20;;;;;;;21.40;44.00;101627.41;4958956;28;99165;-81
2023/05/14 08:30:48;;;;;;;2.23;2.03;;;;;;;21.49;43.98;101632.53;4969266;28;97574;-81
2023/05/14 08:33:13;;;;;;;1.97;1.87;;;;;;;21.59;43.46;101630.78;4973836;28;96966;-81
2023/05/14 08:35:39;;;;;;;2.00;1.90;;;;;;;21.67;43.39;101619.63;4960710;28;99278;-81
2023/05/14 08:38:04;;;;;;;2.47;2.27;;;;;;;21.78;43.33;101613.75;4953424;28;100616;-81
2023/05/14 08:40:30;;;;;;;1.90;1.80;;;;;;;21.84;42.99;101611.56;4968919;28;96888;-82
2023/05/14 08:42:56;;;;;;;2.33;2.13;;;;;;;21.97;42.65;101608.72;4971920;28;97286;-82
2023/05/14 08:45:28;;;;;;;2.43;2.23;;;;;;;22.07;42.00;101631.38;4954239;28;99689;-82
2023/05/14 08:47:54;;;;;;;1.73;1.63;;;;;;;22.20;42.43;101623.63;4953664;28;99391;-81
2023/05/14 08:50:21;;;;;;;2.10;2.00;;;;;;;22.31;41.91;101637.34;4954288;28;97047;-81
2023/05/14 08:52:47;;;;;;;1.97;1.87;;;;;;;22.49;42.32;101623.63;4959051;28;97131;-82
2023/05/14 08:55:12;;;;;;;2.33;2.13;;;;;;;22.60;41.95;101621.28;4959372;28;100617;-81
2023/05/14 08:57:38;;;;;;;3.10;2.20;;;;;;;22.72;42.01;101619.66;4957086;28;97264;-82
2023/05/14 09:00:07;;;;;;;2.10;1.90;;;;;;;22.80;41.80;101619.69;4956415;28;97364;-82
2023/05/14 09:02:34;;;;;;;2.43;2.30;;;;;;;22.72;41.26;101624.50;4956673;28;96969;-82
2023/05/14 09:05:02;;;;;;;2.00;1.90;;;;;;;22.64;41.65;101618.88;4971050;28;100264;-80
2023/05/14 09:07:27;;;;;;;2.13;2.00;;;;;;;22.66;41.44;101623.91;4974233;28;100410;-82
2023/05/14 09:09:54;;;;;;;1.90;1.80;;;;;;;22.67;41.29;101602.97;4955622;28;96965;-83
2023/05/14 09:12:20;;;;;;;2.90;2.60;;;;;;;22.89;41.18;101599.53;4957496;28;97421;-83
2023/05/14 09:14:46;;;;;;;2.73;2.23;;;;;;;23.15;40.76;101599.22;4956043;28;97350;-82
2023/05/14 09:17:12;;;;;;;2.50;2.30;;;;;;;23.39;40.47;101607.16;4960312;28;99061;-83
2023/05/14 09:19:42;;;;;;;2.47;2.27;;;;;;;23.54;40.02;101598.00;4956611;28;96749;-82
2023/05/14 09:22:10;;;;;;;2.60;2.37;;;;;;;23.66;39.90;101596.31;4953098;28;97276;-82
2023/05/14 09:24:37;;;;;;;2.07;1.97;;;;;;;23.74;39.56;101580.22;4952420;28;97012;-82
2023/05/14 09:27:03;;;;;;;2.73;2.20;;;;;;;23.94;39.64;101584.84;4960559;28;99375;-82
2023/05/14 09:29:29;;;;;;;2.90;2.13;;;;;;;24.12;39.36;101594.25;4958353;28;97089;-82
2023/05/14 09:31:56;;;;;;;3.20;2.10;;;;;;;24.35;38.79;101575.25;4960580;28;96860;-82
2023/05/14 09:34:24;;;;;;;2.17;2.00;;;;;;;24.54;38.67;101576.31;4955476;28;97127;-82
2023/05/14 09:36:55;;;;;;;2.77;2.30;;;;;;;24.60;37.74;101576.09;4950128;28;99442;-81
2023/05/14 09:39:22;;;;;;;2.40;2.20;;;;;;;24.70;38.53;101577.00;4962764;28;97207;-81
2023/05/14 09:41:48;;;;;;;2.10;1.93;;;;;;;24.91;38.52;101562.66;4956715;28;100355;-83
2023/05/14 09:44:14;;;;;;;2.60;2.10;;;;;;;24.99;38.05;101571.81;4952454;28;96937;-81
2023/05/14 09:46:39;;;;;;;2.13;1.93;;;;;;;25.04;37.74;101570.84;4955583;28;97725;-82
2023/05/14 09:49:04;;;;;;;2.07;1.77;;;;;;;24.89;37.18;101568.88;4961337;28;97380;-83
2023/05/14 09:51:30;;;;;;;2.07;1.93;;;;;;;24.72;37.42;101557.47;4958247;28;97118;-81
2023/05/14 09:53:56;;;;;;;4.40;2.30;;;;;;;24.63;37.72;101560.91;4952287;28;96815;-81
2023/05/14 09:56:21;;;;;;;2.73;1.87;;;;;;;24.73;37.87;101558.22;4956731;28;100183;-83
2023/05/14 09:58:47;;;;;;;2.70;2.50;;;;;;;24.71;37.69;101567.22;4956144;28;97716;-81
2023/05/14 10:01:17;;;;;;;2.67;1.70;;;;;;;24.51;37.54;101582.31;4961373;28;97264;-81
2023/05/14 10:03:43;;;;;;;2.60;2.40;;;;;;;24.43;37.77;101567.53;4952073;28;100604;-82
2023/05/14 10:06:10;;;;;;;2.30;2.10;;;;;;;24.34;37.44;101585.00;4960412;28;99038;-82
2023/05/14 10:08:40;;;;;;;2.67;2.47;;;;;;;24.23;37.83;101568.53;4971920;28;96849;-82
2023/05/14 10:11:12;;;;;;;2.23;2.03;;;;;;;24.14;37.81;101550.19;4954443;28;97057;-82
2023/05/14 10:13:49;;;;;;;2.20;2.10;;;;;;;24.13;37.44;101545.88;4960688;28;99644;-82
2023/05/14 10:16:23;;;;;;;2.33;2.20;;;;;;;24.08;36.59;101541.19;4952833;28;98731;-81
2023/05/14 10:18:53;;;;;;;2.50;2.40;;;;;;;24.05;37.37;101542.31;4957007;28;97317;-81
2023/05/14 10:21:20;;;;;;;5.70;2.30;;;;;;;23.94;37.61;101539.16;4970325;28;97509;-81
2023/05/14 10:23:47;;;;;;;2.40;2.30;;;;;;;23.78;37.33;101539.19;4960955;28;99339;-82
2023/05/14 10:26:13;;;;;;;3.20;2.07;;;;;;;23.74;37.83;101550.03;4951336;28;99408;-82
2023/05/14 10:28:38;;;;;;;2.20;2.10;;;;;;;23.80;37.66;101559.03;4956013;28;96727;-81
2023/05/14 10:31:03;;;;;;;2.17;2.07;;;;;;;23.79;37.08;101548.34;4955589;28;97100;-82
2023/05/14 10:33:29;;;;;;;2.97;2.00;;;;;;;23.83;37.50;101548.69;4958999;28;100294;-82
2023/05/14 10:36:04;;;;;;;2.20;2.10;;;;;;;23.89;37.42;101538.03;4957180;28;97011;-81
2023/05/14 10:38:35;;;;;;;3.03;2.17;;;;;;;23.98;37.16;101545.13;4950143;28;97358;-81
2023/05/14 10:41:02;;;;;;;2.40;2.20;;;;;;;23.94;36.91;101530.72;4952277;28;96825;-81
2023/05/14 10:43:29;;;;;;;3.43;1.90;;;;;;;24.11;36.90;101523.22;4956649;28;97423;-81
2023/05/14 10:45:56;;;;;;;2.47;2.27;;;;;;;24.14;36.78;101535.38;4953236;28;97687;-82
2023/05/14 10:48:21;;;;;;;2.63;1.90;;;;;;;24.06;36.71;101526.97;4955690;28;97400;-82
2023/05/14 10:50:48;;;;;;;2.50;2.30;;;;;;;24.02;36.94;101515.31;4956286;28;97399;-82
2023/05/14 10:53:14;;;;;;;1.97;1.87;;;;;;;24.05;36.49;101539.50;4955163;28;97410;-81
2023/05/14 10:55:41;;;;;;;2.90;1.90;;;;;;;24.03;36.92;101521.69;4952907;28;97532;-82
2023/05/14 10:58:08;;;;;;;2.23;2.03;;;;;;;24.04;36.92;101523.19;4960291;28;97160;-82
2023/05/14 11:00:34;;;;;;;1.90;1.80;;;;;;;24.04;36.78;101514.75;4957261;28;97073;-82
2023/05/14 11:03:02;;;;;;;2.40;2.30;;;;;;;24.02;36.33;101526.56;4950722;28;97664;-81
2023/05/14 11:05:28;;;;;;;2.20;2.10;;;;;;;23.93;36.66;101506.72;4954374;28;98008;-81
2023/05/14 11:07:56;;;;;;;4.67;2.10;;;;;;;23.90;36.74;101505.03;4954529;28;97329;-81
2023/05/14 11:10:24;;;;;;;2.10;2.00;;;;;;;23.90;36.77;101502.97;4953577;28;97324;-82
2023/05/14 11:12:50;;;;;;;2.93;1.90;;;;;;;23.95;36.97;101501.28;4956241;28;100300;-81
2023/05/14 11:15:19;;;;;;;2.03;1.93;;;;;;;24.01;37.07;101513.81;4969623;28;99357;-82
2023/05/14 11:17:45;;;;;;;2.00;1.90;;;;;;;24.05;36.21;101494.53;4969469;28;97338;-81
2023/05/14 11:20:11;;;;;;;1.97;1.87;;;;;;;24.03;36.17;101488.69;4960964;28;97313;-82